Terminal Aerodrome Forecast
Issued by NWS Cleveland, OH

Home | Current Version | Previous Version | Graphics & Text | Print | Product List | Glossary Off
Versions: 1 2 3 4 5 6 7 8 9 10 11 12 13 14 15

842
FTUS41 KCLE 290311 AAA
TAFYNG
TAF AMD
KYNG 290311Z 2903/2924 19006KT P6SM BKN150
     FM291300 20010KT P6SM FEW150 SCT200
     FM291700 23014G22KT P6SM SCT035 BKN100=

USA.gov is the U.S. government's official web portal to all federal, state and local government web resources and services.